Estación Meteorológica Peña el Pijo (Robertgarden) [ 06/14/24 10:28:19 CEST ]

Fecha Hora Presion(HPa) Temp (°C) Humedad % Rocio (°C) Viento ( m/s) Direccion Lluvia 1Hora(mm) Lluvia 24H(mm) LLuvia Total(mm)
2008-Jun-05 01:05:16 1012.800 11.9 85 9.4         181.79
2008-Jun-05 02:05:21 1012.700 10.5 88 8.6         181.79
2008-Jun-05 03:05:24 1012.400 9.6 90 8.0         181.79
2008-Jun-05 04:05:14 1012.000 9.4 91 8.0         181.79
2008-Jun-05 05:05:23 1012.000 8.4 91 7.0         181.79
2008-Jun-05 06:05:19 1011.700 7.9 92 6.7         181.79
2008-Jun-05 07:05:16 1011.500 7.2 92 6.0         181.79
2008-Jun-05 08:05:21 1011.800 8.9 94 8.0         181.79
2008-Jun-05 09:05:13 1011.600 17.1 75 12.6         181.79
2008-Jun-05 10:05:14 1011.300 26.8 40 12.1         181.79
2008-Jun-05 11:05:14 1011.100 29.9 30 10.5         181.79
2008-Jun-05 12:05:19 1011.000 27.6 30 8.5         181.79
2008-Jun-05 13:05:13 1010.600 28.5 28 8.1 0.9 S     181.79
2008-Jun-05 14:05:14 1010.100 28.7 27 7.7         181.79
2008-Jun-05 15:05:19 1009.400 28.5 26 6.9         181.79
2008-Jun-05 16:05:14 1009.200 31.4 22 7.0         181.79
2008-Jun-05 17:05:13 1009.000 34.3 20 8.1         181.79
2008-Jun-05 18:05:17 1008.600 31.0 22 6.7 1.1 W     181.79
2008-Jun-05 19:05:12 1008.700 32.9 21 7.6 1.1 SW     181.79
2008-Jun-05 20:05:24 1008.900 21.9 31 4.0         181.79
2008-Jun-05 21:05:25 1009.100 18.8 41 5.2         181.79
2008-Jun-05 22:05:23 1010.000 17.4 54 7.9         181.79
2008-Jun-05 23:05:12 1011.300 16.3 55 7.2         181.79

Temperatura Máxima:34°    Temperatura Mínima:
Presión Máxima:1012.800 Hpa    Presión Mínima:1008.600 Hpa


Volver